EDT,Max TemperatureF,Mean TemperatureF,Min TemperatureF,Max Dew PointF,MeanDew PointF,Min DewpointF,Max Humidity, Mean Humidity, Min Humidity, Max Sea Level PressureIn, Mean Sea Level PressureIn, Min Sea Level PressureIn, Max VisibilityMiles, Mean VisibilityMiles, Min VisibilityMiles, Max Wind SpeedMPH, Mean Wind SpeedMPH, Max Gust SpeedMPH,PrecipitationIn, CloudCover, Events, WindDirDegrees
2013-5-1,74,53,32,44,38,30,100,65,29,30.43,30.38,30.31,10,9,2,10,2,17,0.00,2,,128
2013-5-2,80,56,32,44,37,31,96,59,21,30.45,30.38,30.32,10,10,10,15,3,20,0.00,2,,67
2013-5-3,73,54,34,42,32,25,76,48,20,30.40,30.34,30.27,10,10,10,16,5,21,0.00,0,,129
2013-5-4,72,50,27,37,33,26,92,59,25,30.34,30.28,30.19,10,10,9,15,3,23,0.00,0,,77
2013-5-5,78,54,30,41,33,29,100,58,16,30.23,30.18,30.10,10,10,10,13,3,15,0.00,1,,104
2013-5-6,78,55,31,39,30,19,92,52,12,30.18,30.13,30.03,10,10,10,15,3,20,0.00,0,,225
2013-5-7,79,55,30,46,36,28,92,56,19,30.14,30.10,30.04,10,10,10,13,3,17,0.00,0,,226
2013-5-8,77,56,35,59,46,34,100,66,31,30.13,30.07,29.99,10,9,2,23,5,30,0.29,4,Rain,159
2013-5-9,70,57,44,54,49,43,100,69,37,29.97,29.92,29.86,10,8,2,13,4,28,0.13,4,Rain,194
2013-5-10,70,61,51,57,53,47,100,73,45,29.98,29.92,29.78,10,9,2,14,3,18,0.13,6,Rain,215
2013-5-11,61,53,45,57,52,41,93,85,77,29.77,29.66,29.61,10,8,1,18,10,25,0.35,8,Rain,227
2013-5-12,50,41,32,43,33,24,92,66,39,29.74,29.68,29.61,10,9,2,28,12,38,T,7,Snow,231
2013-5-13,43,37,30,34,29,26,92,76,59,30.05,29.82,29.70,10,6,0,25,9,36,0.05,8,Fog-Rain-Snow,246
2013-5-14,52,38,23,30,25,21,100,67,34,30.10,30.06,30.01,10,10,9,10,2,14,0.00,3,,252
2013-5-15,59,40,20,48,34,18,92,62,32,30.04,29.77,29.56,10,10,10,20,7,25,0.04,4,,203
2013-5-16,68,56,43,42,36,32,76,52,27,29.92,29.73,29.63,10,10,10,28,10,39,0.00,4,,270
2013-5-17,62,47,32,38,35,29,85,57,29,30.25,30.09,29.94,10,10,10,13,4,23,0.00,5,,318
2013-5-18,69,48,27,39,32,26,92,57,22,30.31,30.26,30.21,10,10,10,15,4,18,0.00,1,,51
2013-5-19,67,50,32,52,44,31,93,69,44,30.25,30.18,30.06,10,10,6,15,5,20,0.13,4,Rain,187
2013-5-20,68,61,53,60,56,52,100,89,78,30.06,30.01,29.97,10,4,0,15,5,,0.18,7,Fog-Rain,231
2013-5-21,66,60,53,61,56,52,100,87,73,29.97,29.89,29.78,10,5,0,24,7,35,1.44,7,Fog-Rain-Thunderstorm,36
2013-5-22,77,66,54,66,60,54,100,82,64,29.84,29.79,29.69,10,6,0,35,5,49,0.76,6,Fog-Rain-Thunderstorm,221
2013-5-23,72,61,50,63,59,53,100,84,68,29.78,29.75,29.70,10,6,0,24,7,37,0.47,7,Fog-Rain-Thunderstorm,230
2013-5-24,50,45,39,54,40,37,100,95,89,30.07,29.91,29.74,10,4,2,13,6,20,0.52,8,Rain,354
2013-5-25,40,38,36,39,36,34,92,89,85,30.06,30.02,29.95,10,6,2,14,8,21,0.60,8,Rain-Snow,1
2013-5-26,53,42,31,39,37,33,100,73,46,30.10,29.98,29.89,10,6,2,16,6,30,0.33,7,Rain-Snow,338
2013-5-27,63,46,28,37,31,27,100,64,27,30.21,30.15,30.07,10,9,2,13,3,22,0.00,0,,272
2013-5-28,72,50,28,45,34,27,92,58,23,30.22,30.15,30.04,10,10,10,15,5,23,0.00,1,,170
2013-5-29,71,63,54,64,58,49,93,80,67,30.02,29.97,29.92,10,8,1,18,7,23,0.32,8,Rain,213
2013-5-30,81,69,57,63,60,58,97,71,45,30.10,30.06,30.00,10,8,5,16,7,24,0.00,5,,242
2013-5-31,87,70,52,62,56,52,100,67,34,30.10,30.04,29.94,10,7,0,17,6,26,0.00,1,Fog,231